createdAt,value
2022-11-03T00:01:39.062Z,93.57
2022-11-03T00:07:41.100Z,93.58
2022-11-03T00:13:44.801Z,93.58
2022-11-03T00:19:46.741Z,92.85
2022-11-03T00:25:48.946Z,93.75
2022-11-03T00:31:51.005Z,93.74
2022-11-03T00:37:52.969Z,94.09
2022-11-03T00:43:55.307Z,94.42
2022-11-03T00:49:57.175Z,94.85
2022-11-03T00:56:09.376Z,94.31
2022-11-03T01:02:11.300Z,95.11
2022-11-03T01:08:13.265Z,94.93
2022-11-03T01:14:16.267Z,95.62
2022-11-03T01:20:18.681Z,96.15
2022-11-03T01:26:21.052Z,95.94
2022-11-03T01:32:22.988Z,95.39
2022-11-03T01:38:42.297Z,95.36
2022-11-03T01:44:48.370Z,95.52
2022-11-03T01:50:51.961Z,95.63
2022-11-03T01:56:55.353Z,95.71
2022-11-03T02:02:58.095Z,96.26
2022-11-03T02:09:07.382Z,95.98
2022-11-03T02:15:13.828Z,96.24
2022-11-03T02:22:00.304Z,96.09
2022-11-03T02:28:04.120Z,96.37
2022-11-03T02:34:28.361Z,97.13
2022-11-03T02:40:39.091Z,96.75
2022-11-03T02:46:44.184Z,96.27
2022-11-03T02:52:47.991Z,96.54
2022-11-03T02:59:04.847Z,97.21
2022-11-03T03:05:11.117Z,97.79
2022-11-03T03:11:14.123Z,97.48
2022-11-03T03:17:24.858Z,97.10
2022-11-03T03:23:34.062Z,96.97
2022-11-03T03:29:46.335Z,97.28
2022-11-03T03:35:51.253Z,96.84
2022-11-03T03:41:54.217Z,96.52
2022-11-03T03:47:57.912Z,96.22
2022-11-03T03:53:59.882Z,96.37
2022-11-03T04:00:01.787Z,96.65
2022-11-03T04:06:04.937Z,96.57
2022-11-03T04:12:27.395Z,96.11
2022-11-03T04:18:47.542Z,95.83
2022-11-03T04:24:51.679Z,96.03
2022-11-03T04:30:59.473Z,95.58
2022-11-03T04:37:01.919Z,95.31
2022-11-03T04:43:13.918Z,95.53
2022-11-03T04:49:23.215Z,94.78
2022-11-03T04:55:25.754Z,94.90
2022-11-03T05:01:28.731Z,94.46
2022-11-03T05:07:36.317Z,94.97
2022-11-03T05:13:38.291Z,95.51
2022-11-03T05:19:43.024Z,95.26
2022-11-03T05:25:52.999Z,94.97
2022-11-03T05:31:57.475Z,95.53
2022-11-03T05:37:59.503Z,95.47
2022-11-03T05:44:30.663Z,95.55
2022-11-03T05:50:38.205Z,96.02
2022-11-03T05:56:40.131Z,96.06
2022-11-03T06:02:43.873Z,96.56
2022-11-03T06:08:46.439Z,96.72
2022-11-03T06:28:30.388Z,97.20
2022-11-03T06:34:50.183Z,97.49
2022-11-03T06:40:53.474Z,97.00
2022-11-03T06:47:21.538Z,96.77
2022-11-03T06:53:31.783Z,97.10
2022-11-03T06:59:33.664Z,96.60
2022-11-03T07:05:36.113Z,95.32
2022-11-03T07:11:46.151Z,94.54
2022-11-03T07:17:48.468Z,94.50
2022-11-03T07:23:50.506Z,94.92
2022-11-03T07:29:58.446Z,94.23
2022-11-03T07:36:16.849Z,93.70
2022-11-03T07:42:24.509Z,91.75
2022-11-03T07:48:39.806Z,91.22
2022-11-03T07:54:41.841Z,89.42
2022-11-03T08:00:43.796Z,88.50
2022-11-03T08:06:46.060Z,89.52
2022-11-03T08:12:47.987Z,88.42
2022-11-03T08:25:02.943Z,88.18
2022-11-03T08:31:09.427Z,87.82
2022-11-03T08:37:14.344Z,88.05
2022-11-03T08:43:16.254Z,88.35
2022-11-03T08:49:18.213Z,85.94
2022-11-03T08:55:20.262Z,86.36
2022-11-03T09:01:22.217Z,85.59
2022-11-03T09:07:24.255Z,85.33
2022-11-03T09:13:26.394Z,85.26
2022-11-03T09:19:28.292Z,85.80
2022-11-03T09:25:30.325Z,85.75
2022-11-03T09:31:32.756Z,84.91
2022-11-03T09:37:34.734Z,82.83
2022-11-03T09:43:36.634Z,80.53
2022-11-03T09:49:38.611Z,81.38
2022-11-03T09:55:40.907Z,81.00
2022-11-03T10:01:45.892Z,79.82
2022-11-03T10:07:48.208Z,79.87
2022-11-03T10:13:56.003Z,78.55
2022-11-03T10:19:58.768Z,78.58
2022-11-03T10:26:18.623Z,78.73
2022-11-03T10:32:33.566Z,76.58
2022-11-03T10:38:36.684Z,76.08
2022-11-03T10:44:38.630Z,76.15
2022-11-03T10:50:41.330Z,75.30
2022-11-03T10:56:45.085Z,74.75
2022-11-03T11:02:49.006Z,73.77
2022-11-03T11:08:59.623Z,72.11
2022-11-03T11:15:07.329Z,71.62
2022-11-03T11:21:19.212Z,72.58
2022-11-03T11:27:35.852Z,71.68
2022-11-03T11:33:37.767Z,72.64
2022-11-03T11:39:44.155Z,70.88
2022-11-03T11:46:23.092Z,72.23
2022-11-03T11:52:25.034Z,71.78
2022-11-03T11:58:42.644Z,72.14
2022-11-03T12:04:47.770Z,71.45
2022-11-03T12:10:54.991Z,71.14
2022-11-03T12:16:59.716Z,69.68
2022-11-03T12:23:01.612Z,69.85
2022-11-03T12:29:05.845Z,69.12
2022-11-03T12:35:09.795Z,69.22
2022-11-03T12:41:24.768Z,68.78
2022-11-03T12:47:26.686Z,70.48
2022-11-03T12:53:28.574Z,70.67
2022-11-03T12:59:30.587Z,70.73
2022-11-03T13:05:32.499Z,71.69
2022-11-03T13:11:52.731Z,71.42
2022-11-03T13:24:16.573Z,72.34
2022-11-03T13:30:18.607Z,73.36
2022-11-03T13:36:23.674Z,73.81
2022-11-03T13:42:25.634Z,73.02
2022-11-03T14:01:11.833Z,74.56
2022-11-03T14:07:13.971Z,75.13
2022-11-03T14:13:15.955Z,74.96
2022-11-03T14:19:17.903Z,76.53
2022-11-03T14:25:20.428Z,77.01
2022-11-03T14:31:22.368Z,77.70
2022-11-03T14:37:25.525Z,78.74
2022-11-03T14:43:33.241Z,79.49
2022-11-03T14:49:37.227Z,79.38
2022-11-03T14:55:39.145Z,79.34
2022-11-03T15:01:41.358Z,79.43
2022-11-03T15:07:43.367Z,80.73
2022-11-03T15:13:47.217Z,81.64
2022-11-03T15:19:51.797Z,82.29
2022-11-03T15:25:53.733Z,82.01
2022-11-03T15:31:55.632Z,82.45
2022-11-03T15:38:00.655Z,82.74
2022-11-03T15:44:02.570Z,83.81
2022-11-03T15:50:06.770Z,83.85
2022-11-03T15:56:08.783Z,84.92
2022-11-03T16:02:35.063Z,85.35
2022-11-03T16:08:32.873Z,86.11
2022-11-03T16:14:34.867Z,86.44
2022-11-03T16:20:36.750Z,87.49
2022-11-03T16:26:38.768Z,87.04
2022-11-03T16:32:40.695Z,86.89
2022-11-03T16:38:42.727Z,87.03
2022-11-03T16:44:44.836Z,87.63
2022-11-03T16:50:46.784Z,87.12
2022-11-03T17:03:04.779Z,84.43
2022-11-03T17:09:07.009Z,84.32
2022-11-03T17:15:09.498Z,83.56
2022-11-03T17:21:11.538Z,82.80
2022-11-03T17:27:16.972Z,82.05
2022-11-03T17:33:19.673Z,81.98
2022-11-03T17:39:38.135Z,82.55
2022-11-03T17:46:20.369Z,82.45
2022-11-03T17:52:30.604Z,83.10
2022-11-03T17:58:36.136Z,83.29
2022-11-03T18:04:38.111Z,83.20
2022-11-03T18:10:46.476Z,84.20
2022-11-03T18:16:53.473Z,83.61
2022-11-03T18:23:17.123Z,83.87
2022-11-03T18:29:19.425Z,84.02
2022-11-03T18:35:31.460Z,83.76
2022-11-03T18:41:36.660Z,83.75
2022-11-03T18:47:38.589Z,84.70
2022-11-03T18:53:59.450Z,84.62
2022-11-03T19:00:02.132Z,84.69
2022-11-03T19:06:05.079Z,83.48
2022-11-03T19:12:09.798Z,83.91
2022-11-03T19:18:13.890Z,84.43
2022-11-03T19:24:15.787Z,83.90
2022-11-03T19:30:19.877Z,84.63
2022-11-03T19:36:21.979Z,85.54
2022-11-03T19:42:36.780Z,84.66
2022-11-03T19:48:39.304Z,85.24
2022-11-03T19:54:48.711Z,85.97
2022-11-03T20:00:58.131Z,86.40
2022-11-03T20:07:04.861Z,86.06
2022-11-03T20:13:19.913Z,85.91
2022-11-03T20:19:22.305Z,86.65
2022-11-03T20:25:28.022Z,86.64
2022-11-03T20:31:30.138Z,87.09
2022-11-03T20:37:32.759Z,87.54
2022-11-03T20:43:47.148Z,88.04
2022-11-03T20:49:49.180Z,87.96
2022-11-03T20:55:52.755Z,89.00
2022-11-03T21:01:54.833Z,89.44
2022-11-03T21:07:56.935Z,89.80
2022-11-03T21:14:18.839Z,90.32
2022-11-03T21:20:20.769Z,90.64
2022-11-03T21:26:22.723Z,89.94
2022-11-03T21:32:24.691Z,90.60
2022-11-03T21:38:26.635Z,90.63
2022-11-03T21:44:28.607Z,91.59
2022-11-03T21:50:30.485Z,91.77
2022-11-03T21:56:32.503Z,90.74
2022-11-03T22:02:34.398Z,91.29
2022-11-03T22:08:37.810Z,92.22
2022-11-03T22:14:57.950Z,91.31
2022-11-03T22:21:18.409Z,92.09
2022-11-03T22:27:20.889Z,91.53
2022-11-03T22:33:22.876Z,91.22
2022-11-03T22:39:43.185Z,91.09
2022-11-03T22:45:51.361Z,91.32
2022-11-03T22:51:53.374Z,91.39
2022-11-03T22:57:55.517Z,91.68
2022-11-03T23:03:58.918Z,91.05
2022-11-03T23:10:04.812Z,90.96
2022-11-03T23:16:22.671Z,91.62
2022-11-03T23:22:24.583Z,92.38
2022-11-03T23:28:26.514Z,92.60
2022-11-03T23:34:28.897Z,93.31
2022-11-03T23:40:33.332Z,92.81
2022-11-03T23:46:54.017Z,93.11
2022-11-03T23:52:55.930Z,92.67
2022-11-03T23:58:58.179Z,92.26
